Swatara, MN

4:48 PM CDT on May 22, 2015 (GMT -0500)
Aitkin Municipal / Steve Kurtz Field | | Change Station
CLOSE
Current Station
Airport
Location: Aitkin,
Elevation: 1204 ft
Nearby Weather Stations

Elev 1204 ft 46.55 °N, 93.68 °W | Updated 15 minutes ago

Clear
Clear
73 °F
Feels Like 73 °F
N
6
Wind Variable Wind from SW

Today
High -- | Low -- °F
--% Chance of Precip.
Yesterday
High -- | Low -- °F
Precip. -- in
5:31 AM 8:51 PM
Waxing Crescent, 24% visible
Pressure 30.17 in
Visibility 10.0 miles
Clouds Clear
Dew Point 27 °F
Humidity 18%
Rainfall 0.00 in
Snow Depth Not available.
UV 6 out of 12
Pollen 8.90 out of 12
Air Quality Not available.
Flu Activity Sporadic
METAR KAIT 222133Z AUTO 22005KT 10SM CLR 23/M03 A3017 RMK AO2

More Conditions Fewer Conditions

Pressure 30.17 in
Visibility 10.0 miles
Clouds Clear
Dew Point 27 °F
Humidity 18%
Rainfall 0.00 in
Snow Depth Not available.
UV 6 out of 12
Pollen 8.90 out of 12
Air Quality Not available.
Flu Activity Sporadic
METAR KAIT 222133Z AUTO 22005KT 10SM CLR 23/M03 A3017 RMK AO2

More Conditions Fewer Conditions

10-Day Weather Forecast

Almanac

Astronomy

May. 22, 2015 Rise Set
Actual Time
Civil Twilight
Nautical Twilight
Astronomical Twilight
Moon
Length of Visible Light
Length of Day
Tomorrow will be .
, % of the Moon is Illuminated

Today's Extremes

State Highs State Lows

Community

WunderPhotos

Upload Photos

1,823,317 photos uploaded!

WunderBlogs® & News

Nearby

Air Quality

  Air Quality AQ Index Pollutant
Not available.

Snow Depth

Station Depth Elevation

Earthquake Activity

City Distance Mag. Time & Date
Minimum magnitude displayed is 2.5.

Coastal Water Temperatures

Place Temperature

Stations

Nearby Weather Stations

Station Location Temp. Windchill Dew Point Humidity Wind Precip. Elev Updated Type